首页
METAR-TAF:

METAR-TAF

机场 :

格罗宁根, 荷兰

纬度: 53-08N, 经度: 006-35E, 海拔: 4米

当前天气观测

该预报发布于12分钟前的18:25 UTC
风速5节,风向东北
温度 15°C
湿度 82%
气压 1014 hPa
能见度10公里或以上

METAR: EHGG 211825Z AUTO 04005KT 9999 NCD 15/12 Q1014 NOSIG

时间: 20:37 (18:37 UTC)

预报

该预报发布于1小时和54分钟前的16:43 UTC
预报有效从21日的 18点(UTC)到 22日的 24点(UTC)
风速3节,风向多变
能见度10公里或以上
1500米以下无云,无积雨云
成为
从 21日的 20点(UTC)到 21日的 22点(UTC)
能見度: 6000
浅雾
成为
从 21日的 22点(UTC)到 21日的 24点(UTC)
能見度: 0600
碎片雾
几率 30%
从 22日的 00点(UTC)到 22日的 07点(UTC)
能見度: 0200
层低于100英尺
成为
从 22日的 07点(UTC)到 22日的 09点(UTC)
能见度10公里或以上
1500米以下无云,无积雨云
成为
从 22日的 20点(UTC)到 22日的 22点(UTC)
能見度: 4000
浅雾
短暂存在
从 22日的 22点(UTC)到 22日的 24点(UTC)
能見度: 0600
碎片雾

TAF: EHGG 211643Z 2118/2224 VRB03KT CAVOK BECMG 2120/2122 6000 MIFG BECMG 2122/2124 0600 BCFG PROB30 2200/2207 0200 FG VV000 BECMG 2207/2209 CAVOK BECMG 2220/2222 4000 MIFG TEMPO 2222/2224 0600 BCFG

超过4000个机场的气象观测和天气预报(METAR&TAF报告)。

可查询的气象台以黄色和红色小点在地图上表示。

将鼠标移到小点上方,可查看气象台名称。

然后点击查看天气观测和预报。

如需切换地图:点击带黑十字的绿色按钮放大地图;点击带横线的绿色按钮缩小地图;或者点击绿色箭头查看邻近地区的地图。


METAR-TAF: